TAI523 KLAX-MSLP
Flight info
| Callsign | TAI523 |
|---|---|
| Flight time | 4h 37m |
| Altitude | 33000 |
| Route | PNDAH2 TCATE DCT PPE UL655 CDR/N0451F350 UL655 ASOKU DCT OLISU OLISU2M |
| Aircraft | A320/M-SDE3FGHIRWY/LB1 |
Departure
| Time | 2026-05-06 13:16 |
|---|---|
| Airport | Los Angeles International Airport (KLAX) |
Arrival
| Time | 2026-05-06 17:53 |
|---|---|
| Airport | El Salvador International Airport Saint Óscar Arnulfo Romero y Galdámez (MSLP) |
| Time | Latitude | Longitude | Altitude | Speed | Heading |
|---|---|---|---|---|---|
| 2026-05-06 12:30 | 33.94688 | -118.40990 | 126 ft | 0 kts | 218° |
| 2026-05-06 13:01 | 33.94698 | -118.40981 | 120 ft | 4 kts | 216° |
| 2026-05-06 13:01 | 33.94720 | -118.40962 | 120 ft | 4 kts | 214° |
| 2026-05-06 13:01 | 33.94741 | -118.40943 | 122 ft | 4 kts | 230° |
| 2026-05-06 13:02 | 33.94750 | -118.40925 | 120 ft | 0 kts | 261° |
| 2026-05-06 13:03 | 33.94750 | -118.40929 | 120 ft | 3 kts | 262° |
| 2026-05-06 13:04 | 33.94746 | -118.40959 | 121 ft | 8 kts | 263° |
| 2026-05-06 13:04 | 33.94734 | -118.41085 | 125 ft | 12 kts | 262° |
| 2026-05-06 13:04 | 33.94730 | -118.41120 | 121 ft | 13 kts | 262° |
| 2026-05-06 13:05 | 33.94605 | -118.41272 | 123 ft | 12 kts | 172° |
| 2026-05-06 13:05 | 33.94521 | -118.41258 | 124 ft | 12 kts | 172° |
| 2026-05-06 13:05 | 33.94440 | -118.41245 | 124 ft | 11 kts | 172° |
| 2026-05-06 13:05 | 33.94370 | -118.41233 | 125 ft | 9 kts | 173° |
| 2026-05-06 13:06 | 33.94304 | -118.41225 | 123 ft | 12 kts | 176° |
| 2026-05-06 13:06 | 33.94206 | -118.41212 | 124 ft | 15 kts | 173° |
| 2026-05-06 13:06 | 33.94099 | -118.41196 | 123 ft | 15 kts | 172° |
| 2026-05-06 13:06 | 33.94005 | -118.41181 | 123 ft | 13 kts | 172° |
| 2026-05-06 13:07 | 33.93917 | -118.41171 | 123 ft | 15 kts | 176° |
| 2026-05-06 13:07 | 33.93810 | -118.41154 | 123 ft | 15 kts | 172° |
| 2026-05-06 13:07 | 33.93767 | -118.41073 | 123 ft | 13 kts | 81° |
| 2026-05-06 13:07 | 33.93780 | -118.40940 | 125 ft | 19 kts | 87° |
| 2026-05-06 13:08 | 33.93800 | -118.40783 | 125 ft | 19 kts | 82° |
| 2026-05-06 13:08 | 33.93816 | -118.40621 | 125 ft | 20 kts | 83° |
| 2026-05-06 13:08 | 33.93833 | -118.40455 | 125 ft | 20 kts | 83° |
| 2026-05-06 13:08 | 33.93849 | -118.40286 | 125 ft | 21 kts | 83° |
| 2026-05-06 13:09 | 33.93867 | -118.40113 | 123 ft | 21 kts | 83° |
| 2026-05-06 13:09 | 33.93886 | -118.39940 | 125 ft | 21 kts | 82° |
| 2026-05-06 13:09 | 33.93903 | -118.39761 | 124 ft | 22 kts | 84° |
| 2026-05-06 13:09 | 33.93921 | -118.39580 | 125 ft | 22 kts | 82° |
| 2026-05-06 13:10 | 33.93940 | -118.39397 | 122 ft | 22 kts | 83° |
| 2026-05-06 13:10 | 33.93959 | -118.39211 | 125 ft | 22 kts | 83° |
| 2026-05-06 13:10 | 33.93979 | -118.39023 | 125 ft | 23 kts | 82° |
| 2026-05-06 13:10 | 33.94000 | -118.38833 | 124 ft | 23 kts | 84° |
| 2026-05-06 13:11 | 33.94017 | -118.38641 | 125 ft | 23 kts | 83° |
| 2026-05-06 13:11 | 33.94021 | -118.38600 | 125 ft | 23 kts | 83° |
| 2026-05-06 13:11 | 33.94068 | -118.38159 | 125 ft | 16 kts | 83° |
| 2026-05-06 13:12 | 33.94079 | -118.38052 | 125 ft | 0 kts | 83° |
| 2026-05-06 13:13 | 33.94079 | -118.38043 | 125 ft | 0 kts | 83° |
| 2026-05-06 13:13 | 33.94073 | -118.38015 | 125 ft | 7 kts | 135° |
| 2026-05-06 13:14 | 33.94025 | -118.37999 | 123 ft | 7 kts | 178° |
| 2026-05-06 13:14 | 33.93989 | -118.38008 | 124 ft | 4 kts | 225° |
| 2026-05-06 13:14 | 33.93984 | -118.38033 | 125 ft | 0 kts | 265° |
| 2026-05-06 13:15 | 33.93974 | -118.38149 | 125 ft | 45 kts | 263° |
| 2026-05-06 13:15 | 33.93906 | -118.38805 | 126 ft | 110 kts | 263° |
| 2026-05-06 13:15 | 33.93789 | -118.39937 | 126 ft | 160 kts | 263° |
| 2026-05-06 13:15 | 33.93642 | -118.41378 | 450 ft | 175 kts | 263° |
| 2026-05-06 13:16 | 33.93485 | -118.42838 | 1045 ft | 179 kts | 263° |
| 2026-05-06 13:16 | 33.93329 | -118.44394 | 1292 ft | 200 kts | 263° |
| 2026-05-06 13:16 | 33.92926 | -118.46082 | 1522 ft | 220 kts | 242° |
| 2026-05-06 13:16 | 33.91993 | -118.47661 | 1742 ft | 245 kts | 231° |
| 2026-05-06 13:17 | 33.90892 | -118.49327 | 1822 ft | 260 kts | 230° |
| 2026-05-06 13:17 | 33.89736 | -118.51016 | 2594 ft | 261 kts | 230° |
| 2026-05-06 13:17 | 33.88960 | -118.52123 | 3144 ft | 262 kts | 231° |
| 2026-05-06 13:17 | 33.87756 | -118.53781 | 3899 ft | 265 kts | 225° |
| 2026-05-06 13:18 | 33.85638 | -118.55355 | 4849 ft | 274 kts | 200° |
| 2026-05-06 13:18 | 33.83742 | -118.55734 | 5511 ft | 280 kts | 179° |
| 2026-05-06 13:18 | 33.81806 | -118.55376 | 6192 ft | 284 kts | 166° |
| 2026-05-06 13:18 | 33.79901 | -118.54850 | 6856 ft | 286 kts | 166° |
| 2026-05-06 13:19 | 33.77949 | -118.54312 | 7523 ft | 289 kts | 165° |
| 2026-05-06 13:19 | 33.75982 | -118.53772 | 8188 ft | 292 kts | 165° |
| 2026-05-06 13:19 | 33.73994 | -118.53230 | 8860 ft | 294 kts | 165° |
| 2026-05-06 13:19 | 33.72010 | -118.52591 | 9531 ft | 295 kts | 155° |
| 2026-05-06 13:20 | 33.70231 | -118.51403 | 10181 ft | 292 kts | 138° |
| 2026-05-06 13:20 | 33.68769 | -118.49664 | 10460 ft | 304 kts | 122° |
| 2026-05-06 13:20 | 33.67690 | -118.47405 | 10580 ft | 322 kts | 114° |
| 2026-05-06 13:20 | 33.66649 | -118.44938 | 10820 ft | 337 kts | 114° |
| 2026-05-06 13:21 | 33.65570 | -118.42405 | 11324 ft | 343 kts | 114° |
| 2026-05-06 13:21 | 33.64472 | -118.39844 | 11891 ft | 348 kts | 114° |
| 2026-05-06 13:21 | 33.63358 | -118.37251 | 12463 ft | 352 kts | 114° |
| 2026-05-06 13:21 | 33.62228 | -118.34630 | 13020 ft | 356 kts | 113° |
| 2026-05-06 13:22 | 33.61082 | -118.31976 | 13569 ft | 360 kts | 113° |
| 2026-05-06 13:22 | 33.59926 | -118.29296 | 14092 ft | 364 kts | 113° |
| 2026-05-06 13:22 | 33.58758 | -118.26586 | 14594 ft | 367 kts | 113° |
| 2026-05-06 13:22 | 33.57582 | -118.23862 | 15100 ft | 369 kts | 113° |
| 2026-05-06 13:23 | 33.56395 | -118.21118 | 15626 ft | 371 kts | 113° |
| 2026-05-06 13:23 | 33.55200 | -118.18363 | 16132 ft | 374 kts | 113° |
| 2026-05-06 13:23 | 33.53997 | -118.15590 | 16649 ft | 376 kts | 113° |
| 2026-05-06 13:23 | 33.52788 | -118.12799 | 17149 ft | 378 kts | 113° |
| 2026-05-06 13:24 | 33.51579 | -118.09990 | 17643 ft | 381 kts | 112° |
| 2026-05-06 13:24 | 33.50359 | -118.07160 | 18150 ft | 383 kts | 112° |
| 2026-05-06 13:24 | 33.49130 | -118.04308 | 18615 ft | 386 kts | 112° |
| 2026-05-06 13:24 | 33.47883 | -118.01450 | 19040 ft | 390 kts | 115° |
| 2026-05-06 13:25 | 33.46329 | -117.98750 | 19483 ft | 398 kts | 126° |
| 2026-05-06 13:25 | 33.44360 | -117.96375 | 19889 ft | 405 kts | 134° |
| 2026-05-06 13:25 | 33.42264 | -117.94164 | 20303 ft | 408 kts | 134° |
| 2026-05-06 13:25 | 33.40131 | -117.91904 | 20737 ft | 410 kts | 133° |
| 2026-05-06 13:26 | 33.37992 | -117.89634 | 21163 ft | 413 kts | 133° |
| 2026-05-06 13:26 | 33.35834 | -117.87344 | 21575 ft | 415 kts | 133° |
| 2026-05-06 13:26 | 33.33666 | -117.85043 | 21969 ft | 418 kts | 133° |
| 2026-05-06 13:26 | 33.31483 | -117.82730 | 22365 ft | 420 kts | 133° |
| 2026-05-06 13:27 | 33.29285 | -117.80401 | 22752 ft | 423 kts | 133° |
| 2026-05-06 13:27 | 33.27075 | -117.78063 | 23122 ft | 426 kts | 133° |
| 2026-05-06 13:27 | 33.24849 | -117.75715 | 23493 ft | 428 kts | 133° |
| 2026-05-06 13:27 | 33.22613 | -117.73357 | 23821 ft | 430 kts | 133° |
| 2026-05-06 13:28 | 33.20364 | -117.70983 | 24153 ft | 432 kts | 132° |
| 2026-05-06 13:28 | 33.18219 | -117.68498 | 24458 ft | 428 kts | 124° |
| 2026-05-06 13:28 | 33.16439 | -117.65679 | 24758 ft | 422 kts | 115° |
| 2026-05-06 13:28 | 33.15069 | -117.62610 | 25033 ft | 416 kts | 107° |
| 2026-05-06 13:29 | 33.14067 | -117.59390 | 25305 ft | 414 kts | 103° |
| 2026-05-06 13:29 | 33.13119 | -117.56148 | 25597 ft | 416 kts | 103° |
| 2026-05-06 13:29 | 33.12170 | -117.52919 | 25871 ft | 417 kts | 103° |
| 2026-05-06 13:29 | 33.11206 | -117.49646 | 26147 ft | 419 kts | 103° |
| 2026-05-06 13:30 | 33.10236 | -117.46363 | 26441 ft | 420 kts | 103° |
| 2026-05-06 13:30 | 33.09262 | -117.43076 | 26737 ft | 421 kts | 103° |
| 2026-05-06 13:30 | 33.08284 | -117.39778 | 27013 ft | 422 kts | 103° |
| 2026-05-06 13:30 | 33.07307 | -117.36473 | 27280 ft | 423 kts | 103° |
| 2026-05-06 13:31 | 33.06326 | -117.33155 | 27555 ft | 424 kts | 103° |
| 2026-05-06 13:31 | 33.05343 | -117.29836 | 27828 ft | 426 kts | 103° |
| 2026-05-06 13:31 | 33.04356 | -117.26503 | 28104 ft | 427 kts | 103° |
| 2026-05-06 13:31 | 33.03363 | -117.23161 | 28354 ft | 429 kts | 103° |
| 2026-05-06 13:32 | 33.02362 | -117.19805 | 28593 ft | 430 kts | 103° |
| 2026-05-06 13:32 | 33.01357 | -117.16445 | 28833 ft | 431 kts | 103° |
| 2026-05-06 13:32 | 33.00350 | -117.13079 | 29090 ft | 432 kts | 103° |
| 2026-05-06 13:32 | 32.99340 | -117.09706 | 29302 ft | 433 kts | 103° |
| 2026-05-06 13:33 | 32.98328 | -117.06328 | 29514 ft | 434 kts | 103° |
| 2026-05-06 13:33 | 32.97313 | -117.02936 | 29705 ft | 435 kts | 103° |
| 2026-05-06 13:33 | 32.96297 | -116.99535 | 29934 ft | 436 kts | 103° |
| 2026-05-06 13:33 | 32.95280 | -116.96135 | 30213 ft | 435 kts | 103° |
| 2026-05-06 13:34 | 32.94261 | -116.92743 | 30428 ft | 434 kts | 103° |
| 2026-05-06 13:34 | 32.93248 | -116.89393 | 30635 ft | 434 kts | 104° |
| 2026-05-06 13:34 | 32.92225 | -116.86011 | 30856 ft | 434 kts | 104° |
| 2026-05-06 13:34 | 32.91204 | -116.82632 | 31079 ft | 433 kts | 104° |
| 2026-05-06 13:35 | 32.90184 | -116.79254 | 31272 ft | 433 kts | 104° |
| 2026-05-06 13:35 | 32.89496 | -116.76976 | 31410 ft | 434 kts | 104° |
| 2026-05-06 13:35 | 32.88476 | -116.73598 | 31606 ft | 434 kts | 104° |
| 2026-05-06 13:35 | 32.87125 | -116.69128 | 31878 ft | 434 kts | 104° |
| 2026-05-06 13:36 | 32.86447 | -116.66886 | 31999 ft | 434 kts | 104° |
| 2026-05-06 13:36 | 32.85086 | -116.62390 | 32270 ft | 434 kts | 104° |
| 2026-05-06 13:36 | 32.84407 | -116.60149 | 32420 ft | 434 kts | 104° |
| 2026-05-06 13:36 | 32.83383 | -116.56775 | 32601 ft | 434 kts | 104° |
| 2026-05-06 13:37 | 32.82355 | -116.53396 | 32771 ft | 435 kts | 104° |
| 2026-05-06 13:37 | 32.81324 | -116.50015 | 32916 ft | 435 kts | 105° |
| 2026-05-06 13:37 | 32.80113 | -116.46699 | 33130 ft | 440 kts | 112° |
| 2026-05-06 13:38 | 32.77311 | -116.40255 | 33159 ft | 437 kts | 112° |
| 2026-05-06 13:38 | 32.74526 | -116.33866 | 33144 ft | 437 kts | 112° |
| 2026-05-06 13:39 | 32.71733 | -116.27459 | 33156 ft | 437 kts | 112° |
| 2026-05-06 13:39 | 32.68935 | -116.21035 | 33142 ft | 439 kts | 113° |
| 2026-05-06 13:40 | 32.65649 | -116.13509 | 33125 ft | 439 kts | 113° |
| 2026-05-06 13:40 | 32.63312 | -116.08161 | 33132 ft | 439 kts | 114° |
| 2026-05-06 13:41 | 32.60488 | -116.01717 | 33110 ft | 441 kts | 114° |
| 2026-05-06 13:41 | 32.57655 | -115.95265 | 33092 ft | 442 kts | 114° |
| 2026-05-06 13:42 | 32.54804 | -115.88796 | 33070 ft | 444 kts | 116° |
| 2026-05-06 13:42 | 32.51935 | -115.82300 | 33075 ft | 445 kts | 116° |
| 2026-05-06 13:43 | 32.49076 | -115.75839 | 33072 ft | 446 kts | 116° |
| 2026-05-06 13:43 | 32.46193 | -115.69320 | 33069 ft | 447 kts | 117° |
| 2026-05-06 13:44 | 32.43296 | -115.62778 | 33019 ft | 449 kts | 118° |
| 2026-05-06 13:44 | 32.40378 | -115.56211 | 33031 ft | 452 kts | 118° |
| 2026-05-06 13:45 | 32.37435 | -115.49612 | 33015 ft | 454 kts | 118° |
| 2026-05-06 13:45 | 32.33007 | -115.39675 | 33020 ft | 456 kts | 118° |
| 2026-05-06 13:46 | 32.30039 | -115.33043 | 33008 ft | 457 kts | 120° |
| 2026-05-06 13:46 | 32.27051 | -115.26377 | 33010 ft | 461 kts | 121° |
| 2026-05-06 13:47 | 32.24037 | -115.19649 | 33027 ft | 464 kts | 121° |
| 2026-05-06 13:47 | 32.21009 | -115.12897 | 33013 ft | 466 kts | 121° |
| 2026-05-06 13:48 | 32.17966 | -115.06138 | 33016 ft | 466 kts | 121° |
| 2026-05-06 13:48 | 32.14907 | -114.99370 | 32991 ft | 467 kts | 122° |
| 2026-05-06 13:49 | 32.11858 | -114.92633 | 33003 ft | 469 kts | 122° |
| 2026-05-06 13:49 | 32.08783 | -114.85842 | 33006 ft | 470 kts | 122° |
| 2026-05-06 13:50 | 32.05700 | -114.79035 | 33022 ft | 471 kts | 122° |
| 2026-05-06 13:50 | 32.02611 | -114.72223 | 33009 ft | 471 kts | 122° |
| 2026-05-06 13:51 | 31.99512 | -114.65408 | 33026 ft | 472 kts | 122° |
| 2026-05-06 13:51 | 31.96405 | -114.58601 | 32988 ft | 472 kts | 123° |
| 2026-05-06 13:52 | 31.93287 | -114.51795 | 33007 ft | 473 kts | 123° |
| 2026-05-06 13:52 | 31.90156 | -114.44976 | 32984 ft | 474 kts | 123° |
| 2026-05-06 13:53 | 31.87026 | -114.38146 | 32979 ft | 474 kts | 124° |
| 2026-05-06 13:53 | 31.83894 | -114.31310 | 32981 ft | 475 kts | 124° |
| 2026-05-06 13:54 | 31.80754 | -114.24471 | 32965 ft | 475 kts | 124° |
| 2026-05-06 13:54 | 31.77618 | -114.17681 | 32956 ft | 476 kts | 126° |
| 2026-05-06 13:55 | 31.74442 | -114.10830 | 32968 ft | 478 kts | 126° |
| 2026-05-06 13:55 | 31.71258 | -114.03957 | 32977 ft | 479 kts | 127° |
| 2026-05-06 13:56 | 31.68071 | -113.97078 | 32983 ft | 480 kts | 126° |
| 2026-05-06 13:56 | 31.64876 | -113.90189 | 32993 ft | 480 kts | 127° |
| 2026-05-06 13:57 | 31.61669 | -113.83309 | 32991 ft | 482 kts | 128° |
| 2026-05-06 13:57 | 31.58430 | -113.76378 | 33011 ft | 484 kts | 128° |
| 2026-05-06 13:58 | 31.55194 | -113.69448 | 33014 ft | 485 kts | 129° |
| 2026-05-06 13:58 | 31.51976 | -113.62560 | 33015 ft | 485 kts | 129° |
| 2026-05-06 13:59 | 31.48728 | -113.55629 | 33024 ft | 485 kts | 129° |
| 2026-05-06 13:59 | 31.45474 | -113.48697 | 33023 ft | 485 kts | 129° |
| 2026-05-06 14:00 | 31.42213 | -113.41766 | 33006 ft | 487 kts | 130° |
| 2026-05-06 14:00 | 31.38941 | -113.34831 | 33014 ft | 487 kts | 130° |
| 2026-05-06 14:01 | 31.35635 | -113.27910 | 33019 ft | 485 kts | 131° |
| 2026-05-06 14:01 | 31.32131 | -113.21209 | 33021 ft | 482 kts | 134° |
| 2026-05-06 14:02 | 31.28530 | -113.14647 | 33023 ft | 481 kts | 134° |
| 2026-05-06 14:02 | 31.24938 | -113.08021 | 33007 ft | 483 kts | 134° |
| 2026-05-06 14:03 | 31.21387 | -113.01346 | 33014 ft | 484 kts | 133° |
| 2026-05-06 14:03 | 31.17860 | -112.94708 | 33020 ft | 484 kts | 133° |
| 2026-05-06 14:04 | 31.14295 | -112.88037 | 33025 ft | 484 kts | 134° |
| 2026-05-06 14:04 | 31.10726 | -112.81380 | 33026 ft | 484 kts | 134° |
| 2026-05-06 14:05 | 31.07151 | -112.74724 | 33019 ft | 484 kts | 134° |
| 2026-05-06 14:05 | 31.03562 | -112.68066 | 33028 ft | 485 kts | 134° |
| 2026-05-06 14:06 | 30.99968 | -112.61396 | 33023 ft | 485 kts | 134° |
| 2026-05-06 14:06 | 30.96376 | -112.54730 | 33029 ft | 485 kts | 134° |
| 2026-05-06 14:07 | 30.92776 | -112.48082 | 33029 ft | 485 kts | 134° |
| 2026-05-06 14:07 | 30.89174 | -112.41435 | 33022 ft | 485 kts | 134° |
| 2026-05-06 14:08 | 30.85597 | -112.34836 | 32993 ft | 485 kts | 134° |
| 2026-05-06 14:08 | 30.81988 | -112.28197 | 33001 ft | 485 kts | 134° |
| 2026-05-06 14:09 | 30.78380 | -112.21568 | 33005 ft | 485 kts | 134° |
| 2026-05-06 14:09 | 30.74774 | -112.14946 | 33006 ft | 485 kts | 134° |
| 2026-05-06 14:10 | 30.71156 | -112.08331 | 33002 ft | 484 kts | 134° |
| 2026-05-06 14:10 | 30.68126 | -112.02798 | 33002 ft | 484 kts | 134° |
| 2026-05-06 14:11 | 30.63919 | -111.95127 | 32999 ft | 484 kts | 134° |
| 2026-05-06 14:11 | 30.60298 | -111.88522 | 33002 ft | 484 kts | 134° |
| 2026-05-06 14:12 | 30.56684 | -111.81940 | 33005 ft | 484 kts | 134° |
| 2026-05-06 14:12 | 30.53063 | -111.75363 | 32999 ft | 483 kts | 134° |
| 2026-05-06 14:13 | 30.49432 | -111.68789 | 33002 ft | 483 kts | 134° |
| 2026-05-06 14:13 | 30.45802 | -111.62235 | 32977 ft | 483 kts | 134° |
| 2026-05-06 14:14 | 30.42171 | -111.55682 | 32995 ft | 483 kts | 134° |
| 2026-05-06 14:14 | 30.38562 | -111.49166 | 33000 ft | 483 kts | 134° |
| 2026-05-06 14:15 | 30.34927 | -111.42618 | 33003 ft | 483 kts | 134° |
| 2026-05-06 14:15 | 30.31288 | -111.36084 | 33003 ft | 483 kts | 134° |
| 2026-05-06 14:16 | 30.27652 | -111.29545 | 32971 ft | 483 kts | 134° |
| 2026-05-06 14:16 | 30.24018 | -111.23019 | 32989 ft | 482 kts | 134° |
| 2026-05-06 14:17 | 30.20377 | -111.16513 | 32995 ft | 482 kts | 134° |
| 2026-05-06 14:17 | 30.16734 | -111.10009 | 32985 ft | 482 kts | 134° |
| 2026-05-06 14:18 | 30.13089 | -111.03509 | 32990 ft | 482 kts | 134° |
| 2026-05-06 14:18 | 30.09444 | -110.97009 | 32991 ft | 482 kts | 134° |
| 2026-05-06 14:19 | 30.05839 | -110.90543 | 32964 ft | 482 kts | 134° |
| 2026-05-06 14:19 | 30.02207 | -110.84032 | 32979 ft | 482 kts | 134° |
| 2026-05-06 14:20 | 29.98575 | -110.77530 | 32973 ft | 482 kts | 134° |
| 2026-05-06 14:20 | 29.94939 | -110.71043 | 32977 ft | 482 kts | 134° |
| 2026-05-06 14:21 | 29.91298 | -110.64569 | 32985 ft | 481 kts | 134° |
| 2026-05-06 14:21 | 29.87647 | -110.58095 | 32986 ft | 482 kts | 134° |
| 2026-05-06 14:22 | 29.83993 | -110.51621 | 32964 ft | 481 kts | 134° |
| 2026-05-06 14:22 | 29.80345 | -110.45153 | 32963 ft | 481 kts | 134° |
| 2026-05-06 14:23 | 29.77310 | -110.39773 | 32978 ft | 482 kts | 134° |
| 2026-05-06 14:23 | 29.73644 | -110.33296 | 32991 ft | 482 kts | 134° |
| 2026-05-06 14:24 | 29.69393 | -110.25786 | 32993 ft | 482 kts | 135° |
| 2026-05-06 14:24 | 29.66323 | -110.20378 | 32994 ft | 482 kts | 135° |
| 2026-05-06 14:25 | 29.62658 | -110.13933 | 32975 ft | 481 kts | 135° |
| 2026-05-06 14:25 | 29.59013 | -110.07531 | 32983 ft | 481 kts | 135° |
| 2026-05-06 14:26 | 29.55342 | -110.01099 | 33006 ft | 481 kts | 135° |
| 2026-05-06 14:26 | 29.51671 | -109.94681 | 33021 ft | 480 kts | 135° |
| 2026-05-06 14:27 | 29.48007 | -109.88273 | 33024 ft | 480 kts | 135° |
| 2026-05-06 14:27 | 29.44348 | -109.81876 | 33022 ft | 480 kts | 135° |
| 2026-05-06 14:28 | 29.40676 | -109.75473 | 32973 ft | 479 kts | 135° |
| 2026-05-06 14:28 | 29.37003 | -109.69087 | 32987 ft | 480 kts | 135° |
| 2026-05-06 14:29 | 29.33327 | -109.62705 | 32992 ft | 480 kts | 135° |
| 2026-05-06 14:29 | 29.29648 | -109.56327 | 33004 ft | 480 kts | 135° |
| 2026-05-06 14:30 | 29.25960 | -109.49944 | 33010 ft | 479 kts | 135° |
| 2026-05-06 14:30 | 29.22277 | -109.43584 | 32998 ft | 479 kts | 135° |
| 2026-05-06 14:31 | 29.18594 | -109.37227 | 32998 ft | 479 kts | 135° |
| 2026-05-06 14:31 | 29.14907 | -109.30863 | 33000 ft | 479 kts | 135° |
| 2026-05-06 14:32 | 29.11214 | -109.24516 | 33007 ft | 479 kts | 135° |
| 2026-05-06 14:32 | 29.07541 | -109.18207 | 33009 ft | 480 kts | 135° |
| 2026-05-06 14:33 | 29.03845 | -109.11859 | 33003 ft | 479 kts | 135° |
| 2026-05-06 14:33 | 29.00150 | -109.05511 | 32981 ft | 479 kts | 135° |
| 2026-05-06 14:34 | 28.96440 | -108.99174 | 33020 ft | 480 kts | 135° |
| 2026-05-06 14:34 | 28.92726 | -108.92835 | 33034 ft | 479 kts | 135° |
| 2026-05-06 14:35 | 28.89020 | -108.86517 | 33034 ft | 479 kts | 135° |
| 2026-05-06 14:35 | 28.85306 | -108.80188 | 33043 ft | 479 kts | 135° |
| 2026-05-06 14:36 | 28.81599 | -108.73880 | 33025 ft | 479 kts | 135° |
| 2026-05-06 14:36 | 28.77886 | -108.67572 | 33012 ft | 478 kts | 135° |
| 2026-05-06 14:37 | 28.74175 | -108.61282 | 33053 ft | 479 kts | 135° |
| 2026-05-06 14:37 | 28.70480 | -108.55038 | 33051 ft | 477 kts | 135° |
| 2026-05-06 14:38 | 28.66762 | -108.48769 | 33063 ft | 478 kts | 135° |
| 2026-05-06 14:39 | 28.59255 | -108.36147 | 33054 ft | 477 kts | 135° |
| 2026-05-06 14:39 | 28.55567 | -108.29955 | 33048 ft | 477 kts | 135° |
| 2026-05-06 14:40 | 28.51840 | -108.23722 | 33055 ft | 477 kts | 135° |
| 2026-05-06 14:40 | 28.48110 | -108.17487 | 33072 ft | 477 kts | 135° |
| 2026-05-06 14:41 | 28.44379 | -108.11257 | 33079 ft | 477 kts | 135° |
| 2026-05-06 14:41 | 28.40641 | -108.05023 | 33080 ft | 477 kts | 135° |
| 2026-05-06 14:42 | 28.36906 | -107.98807 | 33076 ft | 476 kts | 135° |
| 2026-05-06 14:42 | 28.33166 | -107.92600 | 33044 ft | 475 kts | 135° |
| 2026-05-06 14:43 | 28.29431 | -107.86405 | 33049 ft | 476 kts | 135° |
| 2026-05-06 14:43 | 28.25709 | -107.80234 | 33060 ft | 476 kts | 135° |
| 2026-05-06 14:44 | 28.21972 | -107.74026 | 33014 ft | 476 kts | 134° |
| 2026-05-06 14:45 | 28.16341 | -107.64742 | 33084 ft | 476 kts | 135° |
| 2026-05-06 14:45 | 28.12582 | -107.58559 | 33081 ft | 476 kts | 135° |
| 2026-05-06 14:46 | 28.08831 | -107.52387 | 33047 ft | 475 kts | 135° |
| 2026-05-06 14:46 | 28.05088 | -107.46223 | 33053 ft | 475 kts | 135° |
| 2026-05-06 14:47 | 28.01337 | -107.40057 | 33055 ft | 475 kts | 135° |
| 2026-05-06 14:47 | 27.97578 | -107.33905 | 33076 ft | 475 kts | 135° |
| 2026-05-06 14:48 | 27.93826 | -107.27772 | 33075 ft | 474 kts | 135° |
| 2026-05-06 14:48 | 27.90078 | -107.21642 | 33073 ft | 474 kts | 135° |
| 2026-05-06 14:49 | 27.86328 | -107.15526 | 33031 ft | 473 kts | 134° |
| 2026-05-06 14:49 | 27.82580 | -107.09413 | 33061 ft | 473 kts | 135° |
| 2026-05-06 14:50 | 27.78833 | -107.03310 | 33052 ft | 472 kts | 135° |
| 2026-05-06 14:50 | 27.75091 | -106.97223 | 33063 ft | 471 kts | 135° |
| 2026-05-06 14:51 | 27.71371 | -106.91193 | 33071 ft | 471 kts | 135° |
| 2026-05-06 14:51 | 27.67622 | -106.85137 | 33055 ft | 470 kts | 135° |
| 2026-05-06 14:52 | 27.63878 | -106.79082 | 33053 ft | 470 kts | 135° |
| 2026-05-06 14:52 | 27.60137 | -106.73037 | 33025 ft | 469 kts | 134° |
| 2026-05-06 14:53 | 27.56404 | -106.67000 | 33051 ft | 469 kts | 134° |
| 2026-05-06 14:53 | 27.52670 | -106.60961 | 33043 ft | 469 kts | 134° |
| 2026-05-06 14:54 | 27.48925 | -106.54939 | 33043 ft | 469 kts | 134° |
| 2026-05-06 14:54 | 27.45183 | -106.48933 | 33037 ft | 468 kts | 135° |
| 2026-05-06 14:55 | 27.41433 | -106.42928 | 33034 ft | 468 kts | 135° |
| 2026-05-06 14:55 | 27.37687 | -106.36928 | 32990 ft | 469 kts | 134° |
| 2026-05-06 14:56 | 27.33956 | -106.30945 | 33025 ft | 469 kts | 134° |
| 2026-05-06 14:56 | 27.30214 | -106.24975 | 33019 ft | 469 kts | 134° |
| 2026-05-06 14:57 | 27.26452 | -106.18974 | 33025 ft | 470 kts | 134° |
| 2026-05-06 14:57 | 27.22682 | -106.12968 | 33025 ft | 469 kts | 134° |
| 2026-05-06 14:58 | 27.18916 | -106.06973 | 33022 ft | 469 kts | 134° |
| 2026-05-06 14:58 | 27.15152 | -106.00984 | 33024 ft | 470 kts | 134° |
| 2026-05-06 14:59 | 27.11376 | -105.94987 | 33014 ft | 471 kts | 133° |
| 2026-05-06 14:59 | 27.07592 | -105.88982 | 33006 ft | 471 kts | 134° |
| 2026-05-06 15:00 | 27.03796 | -105.82979 | 33004 ft | 472 kts | 134° |
| 2026-05-06 15:00 | 26.99991 | -105.76973 | 33008 ft | 472 kts | 134° |
| 2026-05-06 15:01 | 26.96185 | -105.70951 | 33015 ft | 473 kts | 134° |
| 2026-05-06 15:01 | 26.92374 | -105.64944 | 33029 ft | 473 kts | 134° |
| 2026-05-06 15:02 | 26.88560 | -105.58937 | 33026 ft | 473 kts | 134° |
| 2026-05-06 15:02 | 26.85371 | -105.53928 | 33155 ft | 478 kts | 134° |
| 2026-05-06 15:02 | 26.82778 | -105.49864 | 33361 ft | 480 kts | 134° |
| 2026-05-06 15:03 | 26.81491 | -105.47845 | 33495 ft | 481 kts | 134° |
| 2026-05-06 15:03 | 26.79553 | -105.44799 | 33709 ft | 481 kts | 134° |
| 2026-05-06 15:03 | 26.77615 | -105.41751 | 33926 ft | 481 kts | 134° |
| 2026-05-06 15:03 | 26.75039 | -105.37710 | 34192 ft | 481 kts | 134° |
| 2026-05-06 15:04 | 26.73725 | -105.35652 | 34316 ft | 481 kts | 134° |
| 2026-05-06 15:04 | 26.71781 | -105.32610 | 34508 ft | 480 kts | 135° |
| 2026-05-06 15:04 | 26.69838 | -105.29575 | 34693 ft | 480 kts | 135° |
| 2026-05-06 15:04 | 26.67893 | -105.26538 | 34861 ft | 480 kts | 135° |
| 2026-05-06 15:05 | 26.65972 | -105.23539 | 34999 ft | 481 kts | 135° |
| 2026-05-06 15:05 | 26.62078 | -105.17456 | 35009 ft | 481 kts | 135° |
| 2026-05-06 15:06 | 26.58181 | -105.11378 | 35007 ft | 480 kts | 135° |
| 2026-05-06 15:06 | 26.54281 | -105.05315 | 34998 ft | 481 kts | 135° |
| 2026-05-06 15:07 | 26.50378 | -104.99249 | 35002 ft | 481 kts | 135° |
| 2026-05-06 15:07 | 26.46474 | -104.93188 | 35004 ft | 481 kts | 135° |
| 2026-05-06 15:08 | 26.42556 | -104.87118 | 34989 ft | 482 kts | 135° |
| 2026-05-06 15:08 | 26.38634 | -104.81061 | 34961 ft | 482 kts | 135° |
| 2026-05-06 15:09 | 26.34709 | -104.74997 | 34975 ft | 482 kts | 135° |
| 2026-05-06 15:09 | 26.30788 | -104.68929 | 34988 ft | 482 kts | 135° |
| 2026-05-06 15:10 | 26.26865 | -104.62870 | 34984 ft | 482 kts | 135° |
| 2026-05-06 15:10 | 26.22960 | -104.56862 | 34994 ft | 482 kts | 135° |
| 2026-05-06 15:11 | 26.19025 | -104.50814 | 34995 ft | 482 kts | 135° |
| 2026-05-06 15:11 | 26.15093 | -104.44774 | 34998 ft | 482 kts | 135° |
| 2026-05-06 15:12 | 26.11155 | -104.38736 | 34988 ft | 482 kts | 135° |
| 2026-05-06 15:12 | 26.07220 | -104.32708 | 34980 ft | 481 kts | 135° |
| 2026-05-06 15:13 | 26.03283 | -104.26689 | 34986 ft | 481 kts | 135° |
| 2026-05-06 15:13 | 25.99345 | -104.20664 | 34961 ft | 481 kts | 134° |
| 2026-05-06 15:14 | 25.95405 | -104.14662 | 34978 ft | 480 kts | 135° |
| 2026-05-06 15:14 | 25.91462 | -104.08675 | 34993 ft | 480 kts | 135° |
| 2026-05-06 15:15 | 25.87519 | -104.02677 | 34972 ft | 480 kts | 134° |
| 2026-05-06 15:15 | 25.83593 | -103.96698 | 34993 ft | 479 kts | 134° |
| 2026-05-06 15:16 | 25.79702 | -103.90771 | 34995 ft | 478 kts | 134° |
| 2026-05-06 15:16 | 25.75783 | -103.84824 | 34976 ft | 477 kts | 134° |
| 2026-05-06 15:17 | 25.71867 | -103.78902 | 34984 ft | 475 kts | 134° |
| 2026-05-06 15:17 | 25.67950 | -103.73004 | 35006 ft | 475 kts | 134° |
| 2026-05-06 15:18 | 25.64036 | -103.67109 | 35031 ft | 475 kts | 134° |
| 2026-05-06 15:18 | 25.60127 | -103.61205 | 35030 ft | 474 kts | 134° |
| 2026-05-06 15:19 | 25.56221 | -103.55317 | 35067 ft | 474 kts | 134° |
| 2026-05-06 15:19 | 25.52316 | -103.49442 | 35070 ft | 474 kts | 134° |
| 2026-05-06 15:20 | 25.48405 | -103.43565 | 35089 ft | 475 kts | 134° |
| 2026-05-06 15:20 | 25.44488 | -103.37680 | 35074 ft | 474 kts | 134° |
| 2026-05-06 15:21 | 25.40576 | -103.31814 | 35047 ft | 473 kts | 134° |
| 2026-05-06 15:21 | 25.36696 | -103.25998 | 35023 ft | 473 kts | 134° |
| 2026-05-06 15:22 | 25.32783 | -103.20158 | 34976 ft | 472 kts | 134° |
| 2026-05-06 15:22 | 25.28875 | -103.14332 | 34961 ft | 472 kts | 134° |
| 2026-05-06 15:23 | 25.24967 | -103.08508 | 34956 ft | 472 kts | 133° |
| 2026-05-06 15:23 | 25.21062 | -103.02675 | 34964 ft | 472 kts | 133° |
| 2026-05-06 15:24 | 25.17154 | -102.96854 | 34971 ft | 472 kts | 133° |
| 2026-05-06 15:24 | 25.13239 | -102.91038 | 34971 ft | 472 kts | 134° |
| 2026-05-06 15:25 | 25.09323 | -102.85231 | 34975 ft | 472 kts | 133° |
| 2026-05-06 15:25 | 25.05396 | -102.79416 | 34970 ft | 472 kts | 133° |
| 2026-05-06 15:26 | 25.01468 | -102.73613 | 34977 ft | 472 kts | 133° |
| 2026-05-06 15:26 | 24.97539 | -102.67807 | 34983 ft | 472 kts | 133° |
| 2026-05-06 15:27 | 24.93614 | -102.62000 | 34997 ft | 472 kts | 133° |
| 2026-05-06 15:27 | 24.89687 | -102.56202 | 35000 ft | 472 kts | 133° |
| 2026-05-06 15:28 | 24.85756 | -102.50412 | 35014 ft | 472 kts | 133° |
| 2026-05-06 15:28 | 24.81850 | -102.44666 | 35014 ft | 471 kts | 133° |
| 2026-05-06 15:29 | 24.77916 | -102.38886 | 34994 ft | 471 kts | 133° |
| 2026-05-06 15:29 | 24.73983 | -102.33113 | 35015 ft | 471 kts | 133° |
| 2026-05-06 15:30 | 24.70050 | -102.27343 | 35019 ft | 471 kts | 133° |
| 2026-05-06 15:30 | 24.66111 | -102.21582 | 35027 ft | 471 kts | 133° |
| 2026-05-06 15:31 | 24.62171 | -102.15815 | 35033 ft | 472 kts | 133° |
| 2026-05-06 15:31 | 24.58228 | -102.10050 | 35026 ft | 472 kts | 133° |
| 2026-05-06 15:32 | 24.52341 | -102.01459 | 35014 ft | 471 kts | 132° |
| 2026-05-06 15:32 | 24.48402 | -101.95716 | 35026 ft | 470 kts | 132° |
| 2026-05-06 15:33 | 24.44469 | -101.90001 | 35032 ft | 469 kts | 132° |
| 2026-05-06 15:33 | 24.40536 | -101.84288 | 35039 ft | 469 kts | 132° |
| 2026-05-06 15:34 | 24.36607 | -101.78580 | 35039 ft | 468 kts | 132° |
| 2026-05-06 15:34 | 24.32678 | -101.72883 | 35028 ft | 468 kts | 133° |
| 2026-05-06 15:35 | 24.28750 | -101.67199 | 35015 ft | 468 kts | 132° |
| 2026-05-06 15:35 | 24.24824 | -101.61516 | 35025 ft | 467 kts | 132° |
| 2026-05-06 15:36 | 24.20896 | -101.55843 | 35023 ft | 467 kts | 132° |
| 2026-05-06 15:36 | 24.16963 | -101.50175 | 35025 ft | 467 kts | 132° |
| 2026-05-06 15:37 | 24.12931 | -101.44671 | 35023 ft | 465 kts | 136° |
| 2026-05-06 15:37 | 24.08637 | -101.39388 | 35021 ft | 464 kts | 137° |
| 2026-05-06 15:38 | 24.04309 | -101.34149 | 35024 ft | 464 kts | 137° |
| 2026-05-06 15:38 | 24.00027 | -101.28855 | 35010 ft | 465 kts | 136° |
| 2026-05-06 15:39 | 23.95770 | -101.23518 | 35003 ft | 465 kts | 136° |
| 2026-05-06 15:39 | 23.91508 | -101.18188 | 35011 ft | 466 kts | 136° |
| 2026-05-06 15:40 | 23.87235 | -101.12864 | 35012 ft | 466 kts | 136° |
| 2026-05-06 15:40 | 23.82958 | -101.07546 | 35022 ft | 466 kts | 136° |
| 2026-05-06 15:41 | 23.78671 | -101.02226 | 35027 ft | 466 kts | 136° |
| 2026-05-06 15:41 | 23.74381 | -100.96915 | 35024 ft | 466 kts | 136° |
| 2026-05-06 15:42 | 23.70091 | -100.91606 | 35027 ft | 466 kts | 136° |
| 2026-05-06 15:42 | 23.65832 | -100.86329 | 35004 ft | 466 kts | 136° |
| 2026-05-06 15:43 | 23.61549 | -100.81025 | 34997 ft | 465 kts | 136° |
| 2026-05-06 15:43 | 23.57269 | -100.75738 | 35003 ft | 466 kts | 136° |
| 2026-05-06 15:44 | 23.52979 | -100.70444 | 34996 ft | 465 kts | 136° |
| 2026-05-06 15:44 | 23.48688 | -100.65156 | 34997 ft | 465 kts | 136° |
| 2026-05-06 15:45 | 23.44395 | -100.59874 | 34995 ft | 465 kts | 136° |
| 2026-05-06 15:45 | 23.40105 | -100.54597 | 34973 ft | 465 kts | 136° |
| 2026-05-06 15:46 | 23.35809 | -100.49325 | 34967 ft | 464 kts | 135° |
| 2026-05-06 15:46 | 23.31530 | -100.44075 | 34970 ft | 464 kts | 135° |
| 2026-05-06 15:47 | 23.27243 | -100.38825 | 34953 ft | 463 kts | 135° |
| 2026-05-06 15:47 | 23.22965 | -100.33580 | 34953 ft | 463 kts | 135° |
| 2026-05-06 15:48 | 23.18684 | -100.28346 | 34946 ft | 463 kts | 135° |
| 2026-05-06 15:48 | 23.14436 | -100.23158 | 34931 ft | 463 kts | 135° |
| 2026-05-06 15:49 | 23.10157 | -100.17928 | 34924 ft | 463 kts | 135° |
| 2026-05-06 15:49 | 23.06570 | -100.13553 | 34905 ft | 462 kts | 135° |
| 2026-05-06 15:50 | 23.02310 | -100.08369 | 34901 ft | 463 kts | 135° |
| 2026-05-06 15:50 | 22.98014 | -100.03147 | 34909 ft | 464 kts | 135° |
| 2026-05-06 15:51 | 22.93722 | -99.97923 | 34908 ft | 464 kts | 135° |
| 2026-05-06 15:51 | 22.89429 | -99.92700 | 34901 ft | 463 kts | 135° |
| 2026-05-06 15:52 | 22.85134 | -99.87487 | 34900 ft | 464 kts | 135° |
| 2026-05-06 15:52 | 22.80839 | -99.82273 | 34893 ft | 463 kts | 135° |
| 2026-05-06 15:53 | 22.76541 | -99.77072 | 34893 ft | 463 kts | 135° |
| 2026-05-06 15:53 | 22.72242 | -99.71887 | 34899 ft | 462 kts | 135° |
| 2026-05-06 15:54 | 22.67942 | -99.66695 | 34879 ft | 462 kts | 135° |
| 2026-05-06 15:54 | 22.63645 | -99.61507 | 34878 ft | 462 kts | 135° |
| 2026-05-06 15:55 | 22.59357 | -99.56331 | 34877 ft | 462 kts | 135° |
| 2026-05-06 15:55 | 22.55063 | -99.51154 | 34868 ft | 462 kts | 135° |
| 2026-05-06 15:56 | 22.50790 | -99.46023 | 34862 ft | 461 kts | 135° |
| 2026-05-06 15:56 | 22.46504 | -99.40869 | 34856 ft | 461 kts | 135° |
| 2026-05-06 15:57 | 22.42213 | -99.35711 | 34842 ft | 461 kts | 135° |
| 2026-05-06 15:57 | 22.37923 | -99.30567 | 34844 ft | 461 kts | 135° |
| 2026-05-06 15:58 | 22.33629 | -99.25426 | 34843 ft | 461 kts | 135° |
| 2026-05-06 15:58 | 22.29334 | -99.20280 | 34824 ft | 461 kts | 135° |
| 2026-05-06 15:59 | 22.25045 | -99.15144 | 34824 ft | 461 kts | 135° |
| 2026-05-06 15:59 | 22.20748 | -99.10015 | 34827 ft | 461 kts | 135° |
| 2026-05-06 16:00 | 22.16451 | -99.04883 | 34809 ft | 460 kts | 135° |
| 2026-05-06 16:00 | 22.12160 | -98.99758 | 34814 ft | 460 kts | 135° |
| 2026-05-06 16:01 | 22.07866 | -98.94638 | 34822 ft | 460 kts | 135° |
| 2026-05-06 16:01 | 22.03571 | -98.89538 | 34817 ft | 460 kts | 135° |
| 2026-05-06 16:02 | 21.99274 | -98.84430 | 34811 ft | 460 kts | 135° |
| 2026-05-06 16:02 | 21.95001 | -98.79357 | 34819 ft | 460 kts | 135° |
| 2026-05-06 16:03 | 21.90702 | -98.74261 | 34813 ft | 460 kts | 135° |
| 2026-05-06 16:03 | 21.86405 | -98.69170 | 34805 ft | 459 kts | 135° |
| 2026-05-06 16:04 | 21.82107 | -98.64080 | 34808 ft | 459 kts | 135° |
| 2026-05-06 16:04 | 21.77816 | -98.59000 | 34813 ft | 459 kts | 135° |
| 2026-05-06 16:05 | 21.73519 | -98.53920 | 34809 ft | 459 kts | 135° |
| 2026-05-06 16:05 | 21.69220 | -98.48845 | 34815 ft | 459 kts | 135° |
| 2026-05-06 16:06 | 21.64917 | -98.43778 | 34819 ft | 458 kts | 135° |
| 2026-05-06 16:06 | 21.60620 | -98.38712 | 34816 ft | 459 kts | 135° |
| 2026-05-06 16:07 | 21.56354 | -98.33678 | 34810 ft | 458 kts | 135° |
| 2026-05-06 16:07 | 21.52064 | -98.28623 | 34824 ft | 457 kts | 135° |
| 2026-05-06 16:08 | 21.47778 | -98.23590 | 34827 ft | 457 kts | 135° |
| 2026-05-06 16:08 | 21.43493 | -98.18556 | 34827 ft | 456 kts | 135° |
| 2026-05-06 16:09 | 21.39213 | -98.13533 | 34825 ft | 456 kts | 135° |
| 2026-05-06 16:09 | 21.34931 | -98.08522 | 34822 ft | 456 kts | 135° |
| 2026-05-06 16:10 | 21.30649 | -98.03509 | 34825 ft | 456 kts | 135° |
| 2026-05-06 16:10 | 21.26367 | -97.98500 | 34826 ft | 456 kts | 135° |
| 2026-05-06 16:11 | 21.22082 | -97.93485 | 34821 ft | 455 kts | 135° |
| 2026-05-06 16:11 | 21.17800 | -97.88483 | 34824 ft | 455 kts | 135° |
| 2026-05-06 16:12 | 21.13519 | -97.83493 | 34822 ft | 455 kts | 135° |
| 2026-05-06 16:12 | 21.09240 | -97.78498 | 34821 ft | 454 kts | 135° |
| 2026-05-06 16:13 | 21.04965 | -97.73510 | 34822 ft | 454 kts | 135° |
| 2026-05-06 16:13 | 21.00682 | -97.68536 | 34822 ft | 454 kts | 135° |
| 2026-05-06 16:14 | 20.96425 | -97.63593 | 34810 ft | 454 kts | 135° |
| 2026-05-06 16:14 | 20.92147 | -97.58623 | 34819 ft | 454 kts | 135° |
| 2026-05-06 16:15 | 20.87868 | -97.53659 | 34818 ft | 453 kts | 135° |
| 2026-05-06 16:15 | 20.83595 | -97.48703 | 34831 ft | 453 kts | 135° |
| 2026-05-06 16:16 | 20.79316 | -97.43746 | 34838 ft | 453 kts | 135° |
| 2026-05-06 16:16 | 20.75041 | -97.38811 | 34840 ft | 453 kts | 135° |
| 2026-05-06 16:17 | 20.70763 | -97.33879 | 34839 ft | 452 kts | 135° |
| 2026-05-06 16:17 | 20.66495 | -97.28938 | 34838 ft | 452 kts | 135° |
| 2026-05-06 16:18 | 20.62225 | -97.23999 | 34822 ft | 453 kts | 135° |
| 2026-05-06 16:18 | 20.57948 | -97.19063 | 34818 ft | 453 kts | 135° |
| 2026-05-06 16:19 | 20.53692 | -97.14169 | 34814 ft | 453 kts | 135° |
| 2026-05-06 16:19 | 20.49409 | -97.09242 | 34810 ft | 453 kts | 135° |
| 2026-05-06 16:20 | 20.45131 | -97.04315 | 34808 ft | 453 kts | 135° |
| 2026-05-06 16:20 | 20.40837 | -96.99390 | 34809 ft | 453 kts | 135° |
| 2026-05-06 16:21 | 20.36548 | -96.94474 | 34815 ft | 453 kts | 135° |
| 2026-05-06 16:21 | 20.32276 | -96.89571 | 34810 ft | 453 kts | 135° |
| 2026-05-06 16:22 | 20.27987 | -96.84648 | 34811 ft | 453 kts | 135° |
| 2026-05-06 16:22 | 20.23689 | -96.79734 | 34808 ft | 454 kts | 135° |
| 2026-05-06 16:23 | 20.19386 | -96.74814 | 34815 ft | 454 kts | 134° |
| 2026-05-06 16:23 | 20.15320 | -96.69664 | 34817 ft | 455 kts | 129° |
| 2026-05-06 16:24 | 20.11491 | -96.64278 | 34816 ft | 456 kts | 128° |
| 2026-05-06 16:24 | 20.07669 | -96.58907 | 34826 ft | 455 kts | 129° |
| 2026-05-06 16:25 | 20.03773 | -96.53591 | 34821 ft | 455 kts | 130° |
| 2026-05-06 16:25 | 19.99849 | -96.48309 | 34816 ft | 455 kts | 130° |
| 2026-05-06 16:26 | 19.95930 | -96.43021 | 34816 ft | 455 kts | 130° |
| 2026-05-06 16:26 | 19.92021 | -96.37725 | 34826 ft | 455 kts | 130° |
| 2026-05-06 16:27 | 19.88136 | -96.32462 | 34825 ft | 455 kts | 130° |
| 2026-05-06 16:27 | 19.84220 | -96.27166 | 34819 ft | 455 kts | 130° |
| 2026-05-06 16:28 | 19.80295 | -96.21875 | 34823 ft | 456 kts | 130° |
| 2026-05-06 16:28 | 19.76370 | -96.16589 | 34823 ft | 456 kts | 130° |
| 2026-05-06 16:29 | 19.72446 | -96.11302 | 34828 ft | 456 kts | 130° |
| 2026-05-06 16:29 | 19.68526 | -96.06011 | 34830 ft | 456 kts | 130° |
| 2026-05-06 16:30 | 19.65923 | -96.02502 | 34828 ft | 457 kts | 130° |
| 2026-05-06 16:30 | 19.60679 | -95.95455 | 34833 ft | 457 kts | 130° |
| 2026-05-06 16:31 | 19.56731 | -95.90163 | 34846 ft | 457 kts | 130° |
| 2026-05-06 16:31 | 19.52782 | -95.84866 | 34841 ft | 458 kts | 130° |
| 2026-05-06 16:32 | 19.48823 | -95.79573 | 34842 ft | 458 kts | 130° |
| 2026-05-06 16:32 | 19.44874 | -95.74278 | 34856 ft | 458 kts | 130° |
| 2026-05-06 16:33 | 19.40923 | -95.68984 | 34855 ft | 457 kts | 130° |
| 2026-05-06 16:34 | 19.35027 | -95.61121 | 34863 ft | 455 kts | 130° |
| 2026-05-06 16:34 | 19.31095 | -95.55872 | 34862 ft | 455 kts | 129° |
| 2026-05-06 16:35 | 19.27170 | -95.50631 | 34861 ft | 454 kts | 130° |
| 2026-05-06 16:35 | 19.23241 | -95.45394 | 34861 ft | 454 kts | 130° |
| 2026-05-06 16:36 | 19.19952 | -95.41014 | 34860 ft | 454 kts | 130° |
| 2026-05-06 16:36 | 19.16021 | -95.35787 | 34855 ft | 454 kts | 130° |
| 2026-05-06 16:37 | 19.12122 | -95.30594 | 34856 ft | 454 kts | 130° |
| 2026-05-06 16:37 | 19.08187 | -95.25371 | 34854 ft | 454 kts | 130° |
| 2026-05-06 16:38 | 19.04247 | -95.20144 | 34847 ft | 454 kts | 130° |
| 2026-05-06 16:38 | 19.00311 | -95.14925 | 34852 ft | 454 kts | 130° |
| 2026-05-06 16:39 | 18.96368 | -95.09702 | 34853 ft | 454 kts | 130° |
| 2026-05-06 16:39 | 18.92428 | -95.04488 | 34854 ft | 454 kts | 130° |
| 2026-05-06 16:40 | 18.88490 | -94.99274 | 34860 ft | 454 kts | 130° |
| 2026-05-06 16:40 | 18.84550 | -94.94063 | 34860 ft | 454 kts | 130° |
| 2026-05-06 16:41 | 18.80608 | -94.88856 | 34856 ft | 454 kts | 130° |
| 2026-05-06 16:41 | 18.76651 | -94.83638 | 34859 ft | 455 kts | 130° |
| 2026-05-06 16:42 | 18.72697 | -94.78422 | 34860 ft | 455 kts | 130° |
| 2026-05-06 16:42 | 18.68734 | -94.73203 | 34862 ft | 455 kts | 130° |
| 2026-05-06 16:43 | 18.64800 | -94.68025 | 34881 ft | 455 kts | 130° |
| 2026-05-06 16:43 | 18.60842 | -94.62823 | 34883 ft | 455 kts | 130° |
| 2026-05-06 16:44 | 18.56880 | -94.57628 | 34883 ft | 454 kts | 130° |
| 2026-05-06 16:44 | 18.52924 | -94.52437 | 34889 ft | 454 kts | 130° |
| 2026-05-06 16:45 | 18.48977 | -94.47254 | 34896 ft | 453 kts | 130° |
| 2026-05-06 16:45 | 18.45029 | -94.42078 | 34895 ft | 453 kts | 130° |
| 2026-05-06 16:46 | 18.41080 | -94.36918 | 34893 ft | 452 kts | 130° |
| 2026-05-06 16:46 | 18.37134 | -94.31759 | 34899 ft | 452 kts | 130° |
| 2026-05-06 16:47 | 18.33195 | -94.26600 | 34892 ft | 452 kts | 130° |
| 2026-05-06 16:47 | 18.29252 | -94.21443 | 34891 ft | 452 kts | 130° |
| 2026-05-06 16:48 | 18.25300 | -94.16284 | 34891 ft | 452 kts | 130° |
| 2026-05-06 16:48 | 18.21351 | -94.11140 | 34892 ft | 452 kts | 130° |
| 2026-05-06 16:49 | 18.17404 | -94.06001 | 34889 ft | 452 kts | 130° |
| 2026-05-06 16:49 | 18.13457 | -94.00855 | 34890 ft | 452 kts | 130° |
| 2026-05-06 16:50 | 18.09514 | -93.95715 | 34886 ft | 451 kts | 130° |
| 2026-05-06 16:50 | 18.05560 | -93.90587 | 34885 ft | 451 kts | 130° |
| 2026-05-06 16:51 | 18.01606 | -93.85460 | 34889 ft | 451 kts | 130° |
| 2026-05-06 16:51 | 17.97680 | -93.80363 | 34889 ft | 451 kts | 130° |
| 2026-05-06 16:52 | 17.93738 | -93.75244 | 34893 ft | 451 kts | 130° |
| 2026-05-06 16:52 | 17.89792 | -93.70125 | 34895 ft | 450 kts | 130° |
| 2026-05-06 16:53 | 17.85852 | -93.65022 | 34891 ft | 450 kts | 130° |
| 2026-05-06 16:53 | 17.81917 | -93.59927 | 34885 ft | 449 kts | 130° |
| 2026-05-06 16:54 | 17.77977 | -93.54834 | 34884 ft | 449 kts | 130° |
| 2026-05-06 16:54 | 17.74038 | -93.49742 | 34887 ft | 449 kts | 130° |
| 2026-05-06 16:55 | 17.70097 | -93.44659 | 34877 ft | 449 kts | 130° |
| 2026-05-06 16:55 | 17.66155 | -93.39581 | 34880 ft | 449 kts | 130° |
| 2026-05-06 16:56 | 17.62234 | -93.34529 | 34887 ft | 449 kts | 130° |
| 2026-05-06 16:56 | 17.58292 | -93.29456 | 34888 ft | 449 kts | 130° |
| 2026-05-06 16:57 | 17.54354 | -93.24385 | 34890 ft | 448 kts | 130° |
| 2026-05-06 16:57 | 17.50418 | -93.19320 | 34894 ft | 448 kts | 130° |
| 2026-05-06 16:58 | 17.46482 | -93.14261 | 34892 ft | 448 kts | 130° |
| 2026-05-06 16:58 | 17.42543 | -93.09202 | 34900 ft | 447 kts | 130° |
| 2026-05-06 16:59 | 17.38612 | -93.04148 | 34905 ft | 447 kts | 130° |
| 2026-05-06 16:59 | 17.34682 | -92.99114 | 34909 ft | 446 kts | 130° |
| 2026-05-06 17:00 | 17.30751 | -92.94094 | 34914 ft | 445 kts | 130° |
| 2026-05-06 17:00 | 17.26836 | -92.89075 | 34936 ft | 444 kts | 130° |
| 2026-05-06 17:01 | 17.22960 | -92.84099 | 34929 ft | 444 kts | 129° |
| 2026-05-06 17:01 | 17.19050 | -92.79102 | 34930 ft | 443 kts | 130° |
| 2026-05-06 17:02 | 17.15140 | -92.74120 | 34946 ft | 443 kts | 130° |
| 2026-05-06 17:02 | 17.11239 | -92.69143 | 34935 ft | 443 kts | 130° |
| 2026-05-06 17:03 | 17.07332 | -92.64161 | 34933 ft | 443 kts | 130° |
| 2026-05-06 17:03 | 17.03429 | -92.59186 | 34924 ft | 442 kts | 130° |
| 2026-05-06 17:04 | 16.99536 | -92.54222 | 34960 ft | 441 kts | 130° |
| 2026-05-06 17:04 | 16.95649 | -92.49269 | 34964 ft | 440 kts | 130° |
| 2026-05-06 17:05 | 16.91766 | -92.44331 | 34956 ft | 440 kts | 130° |
| 2026-05-06 17:05 | 16.87880 | -92.39388 | 34980 ft | 441 kts | 130° |
| 2026-05-06 17:06 | 16.83982 | -92.34443 | 34979 ft | 441 kts | 130° |
| 2026-05-06 17:06 | 16.80082 | -92.29506 | 34981 ft | 441 kts | 130° |
| 2026-05-06 17:07 | 16.76185 | -92.24566 | 34974 ft | 441 kts | 130° |
| 2026-05-06 17:07 | 16.72290 | -92.19616 | 34997 ft | 442 kts | 130° |
| 2026-05-06 17:08 | 16.68384 | -92.14661 | 34999 ft | 442 kts | 130° |
| 2026-05-06 17:08 | 16.64478 | -92.09717 | 34995 ft | 441 kts | 130° |
| 2026-05-06 17:09 | 16.60577 | -92.04786 | 35017 ft | 441 kts | 130° |
| 2026-05-06 17:09 | 16.56674 | -91.99863 | 35020 ft | 440 kts | 130° |
| 2026-05-06 17:10 | 16.52775 | -91.94943 | 34991 ft | 440 kts | 130° |
| 2026-05-06 17:10 | 16.48901 | -91.90056 | 34994 ft | 439 kts | 130° |
| 2026-05-06 17:11 | 16.44992 | -91.85124 | 35006 ft | 438 kts | 130° |
| 2026-05-06 17:11 | 16.41135 | -91.80265 | 35002 ft | 437 kts | 130° |
| 2026-05-06 17:12 | 16.37241 | -91.75355 | 35006 ft | 436 kts | 130° |
| 2026-05-06 17:12 | 16.33396 | -91.70514 | 34995 ft | 437 kts | 130° |
| 2026-05-06 17:13 | 16.29513 | -91.65634 | 34986 ft | 438 kts | 130° |
| 2026-05-06 17:13 | 16.25622 | -91.60755 | 34983 ft | 438 kts | 130° |
| 2026-05-06 17:14 | 16.21727 | -91.55869 | 34986 ft | 439 kts | 130° |
| 2026-05-06 17:14 | 16.17836 | -91.50978 | 35004 ft | 439 kts | 130° |
| 2026-05-06 17:15 | 16.13944 | -91.46093 | 35007 ft | 438 kts | 130° |
| 2026-05-06 17:15 | 16.10046 | -91.41214 | 35010 ft | 438 kts | 130° |
| 2026-05-06 17:16 | 16.05793 | -91.36707 | 35019 ft | 437 kts | 142° |
| 2026-05-06 17:16 | 16.00985 | -91.32840 | 35018 ft | 437 kts | 142° |
| 2026-05-06 17:17 | 15.96179 | -91.28969 | 35015 ft | 437 kts | 142° |
| 2026-05-06 17:17 | 15.92181 | -91.25749 | 35015 ft | 437 kts | 142° |
| 2026-05-06 17:18 | 15.87376 | -91.21886 | 35028 ft | 437 kts | 142° |
| 2026-05-06 17:18 | 15.82574 | -91.18026 | 35027 ft | 437 kts | 142° |
| 2026-05-06 17:19 | 15.77769 | -91.14162 | 35052 ft | 437 kts | 142° |
| 2026-05-06 17:19 | 15.72965 | -91.10300 | 35047 ft | 437 kts | 142° |
| 2026-05-06 17:20 | 15.68158 | -91.06442 | 35020 ft | 437 kts | 142° |
| 2026-05-06 17:20 | 15.63350 | -91.02590 | 35033 ft | 437 kts | 142° |
| 2026-05-06 17:21 | 15.58539 | -90.98731 | 35033 ft | 437 kts | 142° |
| 2026-05-06 17:21 | 15.53767 | -90.94901 | 35041 ft | 436 kts | 142° |
| 2026-05-06 17:22 | 15.48959 | -90.91047 | 35065 ft | 436 kts | 142° |
| 2026-05-06 17:22 | 15.44158 | -90.87209 | 35065 ft | 436 kts | 142° |
| 2026-05-06 17:23 | 15.39351 | -90.83369 | 35060 ft | 437 kts | 142° |
| 2026-05-06 17:23 | 15.34539 | -90.79517 | 35084 ft | 437 kts | 142° |
| 2026-05-06 17:24 | 15.29722 | -90.75666 | 35116 ft | 438 kts | 142° |
| 2026-05-06 17:24 | 15.24890 | -90.71815 | 35111 ft | 438 kts | 142° |
| 2026-05-06 17:25 | 15.20063 | -90.67966 | 35127 ft | 438 kts | 142° |
| 2026-05-06 17:25 | 15.15240 | -90.64105 | 35122 ft | 438 kts | 142° |
| 2026-05-06 17:26 | 15.10437 | -90.60279 | 35152 ft | 438 kts | 142° |
| 2026-05-06 17:26 | 15.05601 | -90.56430 | 35157 ft | 439 kts | 142° |
| 2026-05-06 17:27 | 15.00757 | -90.52570 | 35157 ft | 439 kts | 142° |
| 2026-05-06 17:27 | 14.95918 | -90.48718 | 35163 ft | 439 kts | 142° |
| 2026-05-06 17:28 | 14.91070 | -90.44871 | 35176 ft | 439 kts | 142° |
| 2026-05-06 17:28 | 14.86224 | -90.41029 | 35175 ft | 439 kts | 142° |
| 2026-05-06 17:29 | 14.81381 | -90.37174 | 35175 ft | 439 kts | 141° |
| 2026-05-06 17:29 | 14.76561 | -90.33341 | 35195 ft | 439 kts | 142° |
| 2026-05-06 17:30 | 14.71717 | -90.29502 | 35181 ft | 439 kts | 142° |
| 2026-05-06 17:30 | 14.66870 | -90.25667 | 35183 ft | 439 kts | 141° |
| 2026-05-06 17:31 | 14.62029 | -90.21829 | 35198 ft | 438 kts | 142° |
| 2026-05-06 17:31 | 14.59610 | -90.19915 | 34963 ft | 435 kts | 142° |
| 2026-05-06 17:31 | 14.57222 | -90.18024 | 34725 ft | 431 kts | 142° |
| 2026-05-06 17:31 | 14.54851 | -90.16146 | 34497 ft | 428 kts | 142° |
| 2026-05-06 17:32 | 14.52491 | -90.14277 | 34241 ft | 426 kts | 142° |
| 2026-05-06 17:32 | 14.50146 | -90.12417 | 33696 ft | 424 kts | 141° |
| 2026-05-06 17:32 | 14.47816 | -90.10569 | 33191 ft | 421 kts | 141° |
| 2026-05-06 17:32 | 14.45501 | -90.08738 | 32679 ft | 418 kts | 141° |
| 2026-05-06 17:33 | 14.43201 | -90.06920 | 32184 ft | 415 kts | 141° |
| 2026-05-06 17:33 | 14.40913 | -90.05113 | 31694 ft | 413 kts | 141° |
| 2026-05-06 17:33 | 14.38637 | -90.03319 | 31207 ft | 410 kts | 141° |
| 2026-05-06 17:33 | 14.36402 | -90.01557 | 30729 ft | 408 kts | 141° |
| 2026-05-06 17:34 | 14.34153 | -89.99783 | 30241 ft | 406 kts | 141° |
| 2026-05-06 17:34 | 14.31918 | -89.98016 | 29702 ft | 403 kts | 140° |
| 2026-05-06 17:34 | 14.29706 | -89.96268 | 29248 ft | 399 kts | 140° |
| 2026-05-06 17:34 | 14.27514 | -89.94541 | 28805 ft | 394 kts | 140° |
| 2026-05-06 17:35 | 14.25340 | -89.92830 | 28370 ft | 390 kts | 140° |
| 2026-05-06 17:35 | 14.23194 | -89.91139 | 27923 ft | 387 kts | 140° |
| 2026-05-06 17:35 | 14.21067 | -89.89460 | 27488 ft | 383 kts | 140° |
| 2026-05-06 17:36 | 14.16867 | -89.86150 | 26629 ft | 377 kts | 140° |
| 2026-05-06 17:36 | 14.14794 | -89.84515 | 26205 ft | 374 kts | 140° |
| 2026-05-06 17:36 | 14.12732 | -89.82885 | 25767 ft | 371 kts | 140° |
| 2026-05-06 17:36 | 14.10687 | -89.81269 | 25330 ft | 370 kts | 140° |
| 2026-05-06 17:37 | 14.08650 | -89.79662 | 24877 ft | 368 kts | 140° |
| 2026-05-06 17:37 | 14.06617 | -89.78065 | 24406 ft | 367 kts | 140° |
| 2026-05-06 17:37 | 14.04590 | -89.76476 | 23946 ft | 366 kts | 140° |
| 2026-05-06 17:37 | 14.02564 | -89.74886 | 23447 ft | 366 kts | 140° |
| 2026-05-06 17:38 | 14.00548 | -89.73301 | 22971 ft | 363 kts | 139° |
| 2026-05-06 17:38 | 13.98547 | -89.71728 | 22518 ft | 361 kts | 139° |
| 2026-05-06 17:38 | 13.96559 | -89.70164 | 22068 ft | 358 kts | 139° |
| 2026-05-06 17:38 | 13.94581 | -89.68612 | 21626 ft | 356 kts | 139° |
| 2026-05-06 17:39 | 13.92615 | -89.67067 | 21165 ft | 355 kts | 139° |
| 2026-05-06 17:39 | 13.90656 | -89.65526 | 20729 ft | 353 kts | 139° |
| 2026-05-06 17:39 | 13.88735 | -89.64016 | 20304 ft | 351 kts | 139° |
| 2026-05-06 17:39 | 13.86796 | -89.62492 | 19856 ft | 351 kts | 138° |
| 2026-05-06 17:40 | 13.84964 | -89.60853 | 19415 ft | 347 kts | 129° |
| 2026-05-06 17:40 | 13.83431 | -89.58942 | 18960 ft | 346 kts | 125° |
| 2026-05-06 17:40 | 13.81916 | -89.57011 | 18514 ft | 346 kts | 125° |
| 2026-05-06 17:40 | 13.80406 | -89.55093 | 18071 ft | 344 kts | 125° |
| 2026-05-06 17:41 | 13.78903 | -89.53185 | 17596 ft | 342 kts | 126° |
| 2026-05-06 17:41 | 13.77407 | -89.51286 | 17140 ft | 341 kts | 126° |
| 2026-05-06 17:41 | 13.75914 | -89.49399 | 16718 ft | 339 kts | 126° |
| 2026-05-06 17:41 | 13.74428 | -89.47523 | 16284 ft | 338 kts | 126° |
| 2026-05-06 17:42 | 13.72950 | -89.45655 | 15867 ft | 337 kts | 126° |
| 2026-05-06 17:42 | 13.71476 | -89.43784 | 15444 ft | 336 kts | 126° |
| 2026-05-06 17:42 | 13.70008 | -89.41921 | 15032 ft | 335 kts | 127° |
| 2026-05-06 17:42 | 13.68547 | -89.40071 | 14629 ft | 333 kts | 127° |
| 2026-05-06 17:43 | 13.67090 | -89.38225 | 14235 ft | 331 kts | 127° |
| 2026-05-06 17:43 | 13.65630 | -89.36385 | 13839 ft | 330 kts | 129° |
| 2026-05-06 17:43 | 13.63897 | -89.34843 | 13342 ft | 335 kts | 149° |
| 2026-05-06 17:43 | 13.61698 | -89.34089 | 12931 ft | 337 kts | 170° |
| 2026-05-06 17:44 | 13.59357 | -89.34273 | 12573 ft | 339 kts | 193° |
| 2026-05-06 17:44 | 13.57200 | -89.35248 | 12158 ft | 340 kts | 204° |
| 2026-05-06 17:44 | 13.55070 | -89.36292 | 11715 ft | 338 kts | 201° |
| 2026-05-06 17:44 | 13.52894 | -89.37190 | 11308 ft | 336 kts | 197° |
| 2026-05-06 17:45 | 13.50692 | -89.37890 | 11125 ft | 325 kts | 192° |
| 2026-05-06 17:45 | 13.48512 | -89.38388 | 10723 ft | 322 kts | 187° |
| 2026-05-06 17:45 | 13.46317 | -89.38689 | 10518 ft | 311 kts | 183° |
| 2026-05-06 17:45 | 13.44214 | -89.38833 | 10147 ft | 298 kts | 179° |
| 2026-05-06 17:46 | 13.42161 | -89.38837 | 9588 ft | 292 kts | 175° |
| 2026-05-06 17:46 | 13.40167 | -89.38703 | 8950 ft | 289 kts | 172° |
| 2026-05-06 17:46 | 13.38183 | -89.38427 | 8297 ft | 287 kts | 168° |
| 2026-05-06 17:46 | 13.36236 | -89.38013 | 7641 ft | 284 kts | 162° |
| 2026-05-06 17:47 | 13.34556 | -89.37064 | 6996 ft | 274 kts | 130° |
| 2026-05-06 17:47 | 13.33713 | -89.35383 | 6361 ft | 265 kts | 96° |
| 2026-05-06 17:47 | 13.33921 | -89.33542 | 5647 ft | 262 kts | 72° |
| 2026-05-06 17:47 | 13.34538 | -89.31762 | 4901 ft | 265 kts | 69° |
| 2026-05-06 17:48 | 13.35217 | -89.30001 | 4238 ft | 265 kts | 69° |
| 2026-05-06 17:48 | 13.35902 | -89.28243 | 3575 ft | 264 kts | 69° |
| 2026-05-06 17:48 | 13.36572 | -89.26508 | 3155 ft | 253 kts | 70° |
| 2026-05-06 17:48 | 13.37190 | -89.24890 | 2962 ft | 235 kts | 71° |
| 2026-05-06 17:49 | 13.37743 | -89.23362 | 2727 ft | 222 kts | 71° |
| 2026-05-06 17:49 | 13.38261 | -89.21913 | 2506 ft | 210 kts | 72° |
| 2026-05-06 17:49 | 13.38752 | -89.20537 | 2305 ft | 201 kts | 73° |
| 2026-05-06 17:49 | 13.39223 | -89.19219 | 2105 ft | 192 kts | 73° |
| 2026-05-06 17:50 | 13.39669 | -89.17972 | 1881 ft | 179 kts | 72° |
| 2026-05-06 17:50 | 13.39751 | -89.17744 | 1842 ft | 175 kts | 74° |
| 2026-05-06 17:50 | 13.40143 | -89.16650 | 1672 ft | 164 kts | 73° |
| 2026-05-06 17:50 | 13.40528 | -89.15570 | 1508 ft | 160 kts | 73° |
| 2026-05-06 17:51 | 13.40905 | -89.14511 | 1339 ft | 159 kts | 74° |
| 2026-05-06 17:51 | 13.41284 | -89.13450 | 1173 ft | 157 kts | 73° |
| 2026-05-06 17:51 | 13.41659 | -89.12399 | 1021 ft | 158 kts | 73° |
| 2026-05-06 17:51 | 13.42026 | -89.11371 | 844 ft | 156 kts | 74° |
| 2026-05-06 17:52 | 13.42404 | -89.10312 | 695 ft | 159 kts | 73° |
| 2026-05-06 17:52 | 13.42780 | -89.09258 | 526 ft | 156 kts | 71° |
| 2026-05-06 17:52 | 13.43155 | -89.08208 | 369 ft | 157 kts | 72° |
| 2026-05-06 17:52 | 13.43525 | -89.07156 | 201 ft | 156 kts | 71° |
| 2026-05-06 17:53 | 13.43884 | -89.06157 | 90 ft | 134 kts | 71° |
| 2026-05-06 17:53 | 13.44148 | -89.05426 | 93 ft | 84 kts | 70° |
| 2026-05-06 17:53 | 13.44292 | -89.05025 | 101 ft | 39 kts | 70° |
| 2026-05-06 17:53 | 13.44367 | -89.04828 | 102 ft | 14 kts | 56° |
| 2026-05-06 17:54 | 13.44447 | -89.04823 | 102 ft | 12 kts | 337° |
| 2026-05-06 17:54 | 13.44514 | -89.04863 | 101 ft | 11 kts | 310° |
| 2026-05-06 17:54 | 13.44511 | -89.04937 | 100 ft | 14 kts | 246° |
| 2026-05-06 17:54 | 13.44467 | -89.05058 | 101 ft | 20 kts | 251° |
| 2026-05-06 17:55 | 13.44415 | -89.05200 | 100 ft | 22 kts | 249° |
| 2026-05-06 17:55 | 13.44364 | -89.05353 | 96 ft | 17 kts | 269° |
| 2026-05-06 17:55 | 13.44417 | -89.05439 | 96 ft | 14 kts | 265° |
| 2026-05-06 17:55 | 13.44380 | -89.05544 | 95 ft | 18 kts | 248° |
| 2026-05-06 17:56 | 13.44336 | -89.05675 | 94 ft | 21 kts | 250° |
| 2026-05-06 17:56 | 13.44283 | -89.05822 | 94 ft | 23 kts | 250° |
| 2026-05-06 17:56 | 13.44229 | -89.05971 | 90 ft | 16 kts | 251° |
| 2026-05-06 17:56 | 13.44250 | -89.05992 | 92 ft | 4 kts | 346° |
| 2026-05-06 17:57 | 13.44283 | -89.06000 | 91 ft | 7 kts | 343° |
| 2026-05-06 17:57 | 13.44306 | -89.06008 | 91 ft | 0 kts | 340° |